createdAt,value
2017-11-17T00:01:40.265Z,9.20
2017-11-17T00:04:08.504Z,9.30
2017-11-17T00:06:37.027Z,8.87
2017-11-17T00:09:05.279Z,9.50
2017-11-17T00:11:33.778Z,9.07
2017-11-17T00:14:02.034Z,8.50
2017-11-17T00:16:30.269Z,8.97
2017-11-17T00:18:58.516Z,9.57
2017-11-17T00:21:26.873Z,9.90
2017-11-17T00:23:55.094Z,9.70
2017-11-17T00:26:23.721Z,9.20
2017-11-17T00:28:52.225Z,8.70
2017-11-17T00:31:20.494Z,9.10
2017-11-17T00:33:48.728Z,9.03
2017-11-17T00:36:16.973Z,8.60
2017-11-17T00:38:45.656Z,9.13
2017-11-17T00:41:13.891Z,8.20
2017-11-17T00:43:42.129Z,9.30
2017-11-17T00:46:10.381Z,8.43
2017-11-17T00:48:38.618Z,8.70
2017-11-17T00:51:06.886Z,8.67
2017-11-17T00:53:35.128Z,8.90
2017-11-17T00:56:03.386Z,8.70
2017-11-17T00:58:31.617Z,8.60
2017-11-17T01:00:59.857Z,8.63
2017-11-17T01:03:28.098Z,8.80
2017-11-17T01:05:56.378Z,9.67
2017-11-17T01:08:24.607Z,8.53
2017-11-17T01:10:52.842Z,8.73
2017-11-17T01:13:21.597Z,8.80
2017-11-17T01:15:49.817Z,9.00
2017-11-17T01:18:18.057Z,8.40
2017-11-17T01:20:46.300Z,8.10
2017-11-17T01:23:14.528Z,8.50
2017-11-17T01:25:43.174Z,8.43
2017-11-17T01:28:11.424Z,8.57
2017-11-17T01:30:39.658Z,9.33
2017-11-17T01:33:07.900Z,9.10
2017-11-17T01:35:36.155Z,8.40
2017-11-17T01:38:04.386Z,8.97
2017-11-17T01:40:33.056Z,7.90
2017-11-17T01:43:01.285Z,8.47
2017-11-17T01:45:29.523Z,7.90
2017-11-17T01:47:58.192Z,7.97
2017-11-17T01:50:26.452Z,8.00
2017-11-17T01:52:54.673Z,8.23
2017-11-17T01:55:22.944Z,7.93
2017-11-17T01:57:51.991Z,8.07
2017-11-17T02:00:20.344Z,7.93
2017-11-17T02:02:48.610Z,7.60
2017-11-17T02:05:17.142Z,7.53
2017-11-17T02:07:45.377Z,8.00
2017-11-17T02:10:13.638Z,7.43
2017-11-17T02:12:42.178Z,7.30
2017-11-17T02:15:10.405Z,7.30
2017-11-17T02:17:38.663Z,7.13
2017-11-17T02:20:06.896Z,7.77
2017-11-17T02:22:35.146Z,7.43
2017-11-17T02:25:03.385Z,7.03
2017-11-17T02:27:32.004Z,7.17
2017-11-17T02:30:00.254Z,7.10
2017-11-17T02:32:28.791Z,6.63
2017-11-17T02:34:57.041Z,7.53
2017-11-17T02:37:25.287Z,6.97
2017-11-17T02:39:53.822Z,7.30
2017-11-17T02:42:22.087Z,7.20
2017-11-17T02:44:50.325Z,7.50
2017-11-17T02:47:18.642Z,6.50
2017-11-17T02:49:46.886Z,6.90
2017-11-17T02:52:15.154Z,7.30
2017-11-17T02:54:43.381Z,6.10
2017-11-17T02:57:11.991Z,7.10
2017-11-17T02:59:40.637Z,7.10
2017-11-17T03:02:08.873Z,6.47
2017-11-17T03:04:37.105Z,6.63
2017-11-17T03:07:05.352Z,6.60
2017-11-17T03:09:33.629Z,6.57
2017-11-17T03:12:01.865Z,6.47
2017-11-17T03:14:30.100Z,6.63
2017-11-17T03:16:58.347Z,6.33
2017-11-17T03:19:26.606Z,6.73
2017-11-17T03:21:54.912Z,6.40
2017-11-17T03:24:23.170Z,6.00
2017-11-17T03:26:51.410Z,6.30
2017-11-17T03:29:20.264Z,6.20
2017-11-17T03:31:48.513Z,6.27
2017-11-17T03:34:16.742Z,6.10
2017-11-17T03:36:45.364Z,6.00
2017-11-17T03:39:13.639Z,6.13
2017-11-17T03:41:41.876Z,5.80
2017-11-17T03:44:10.512Z,6.50
2017-11-17T03:46:38.753Z,6.37
2017-11-17T03:49:06.987Z,5.00
2017-11-17T03:51:35.221Z,5.93
2017-11-17T03:54:03.480Z,5.57
2017-11-17T03:56:32.424Z,5.53
2017-11-17T03:59:00.661Z,5.27
2017-11-17T04:01:28.925Z,5.33
2017-11-17T04:03:57.161Z,5.67
2017-11-17T04:06:25.392Z,5.43
2017-11-17T04:08:53.656Z,6.07
2017-11-17T04:11:21.894Z,5.43
2017-11-17T04:13:50.132Z,6.00
2017-11-17T04:16:18.413Z,5.23
2017-11-17T04:18:46.647Z,5.47
2017-11-17T04:21:15.270Z,5.40
2017-11-17T04:23:43.541Z,5.60
2017-11-17T04:26:12.044Z,5.27
2017-11-17T04:28:40.281Z,5.40
2017-11-17T04:31:08.801Z,5.40
2017-11-17T04:33:37.043Z,5.60
2017-11-17T04:36:05.284Z,4.87
2017-11-17T04:38:33.913Z,5.47
2017-11-17T04:41:02.154Z,5.17
2017-11-17T04:43:30.891Z,5.57
2017-11-17T04:45:59.381Z,5.30
2017-11-17T04:48:27.861Z,5.33
2017-11-17T04:50:56.122Z,4.97
2017-11-17T04:53:24.387Z,5.20
2017-11-17T04:55:52.618Z,5.00
2017-11-17T04:58:21.271Z,5.13
2017-11-17T05:00:49.501Z,5.23
2017-11-17T05:03:17.770Z,5.00
2017-11-17T05:05:46.392Z,5.23
2017-11-17T05:08:14.627Z,5.17
2017-11-17T05:10:42.873Z,5.07
2017-11-17T05:13:11.336Z,4.87
2017-11-17T05:15:39.587Z,5.07
2017-11-17T05:18:07.825Z,4.97
2017-11-17T05:20:36.571Z,5.03
2017-11-17T05:23:04.824Z,5.30
2017-11-17T05:25:33.065Z,5.30
2017-11-17T05:28:01.702Z,4.63
2017-11-17T05:30:29.945Z,5.23
2017-11-17T05:32:58.210Z,4.63
2017-11-17T05:35:26.457Z,4.80
2017-11-17T05:37:54.716Z,5.10
2017-11-17T05:40:22.940Z,5.07
2017-11-17T05:42:51.216Z,5.03
2017-11-17T05:45:19.498Z,5.07
2017-11-17T05:47:47.770Z,4.80
2017-11-17T05:50:16.365Z,4.53
2017-11-17T05:52:44.642Z,4.90
2017-11-17T05:55:12.888Z,5.03
2017-11-17T05:57:41.511Z,4.63
2017-11-17T06:00:09.759Z,4.93
2017-11-17T06:02:38.001Z,5.00
2017-11-17T06:05:06.230Z,4.30
2017-11-17T06:07:34.469Z,5.10
2017-11-17T06:10:03.172Z,4.50
2017-11-17T06:12:31.397Z,4.90
2017-11-17T06:14:59.664Z,4.83
2017-11-17T06:17:27.905Z,5.20
2017-11-17T06:19:56.965Z,4.50
2017-11-17T06:22:25.601Z,4.83
2017-11-17T06:24:53.838Z,4.70
2017-11-17T06:27:22.566Z,3.80
2017-11-17T06:29:50.806Z,4.70
2017-11-17T06:32:19.046Z,4.97
2017-11-17T06:34:47.327Z,4.20
2017-11-17T06:37:15.802Z,4.70
2017-11-17T06:39:44.042Z,4.40
2017-11-17T06:42:12.305Z,4.90
2017-11-17T06:44:40.566Z,4.47
2017-11-17T06:47:08.827Z,5.03
2017-11-17T06:49:37.070Z,4.90
2017-11-17T06:52:05.338Z,4.53
2017-11-17T06:54:33.587Z,5.40
2017-11-17T06:57:01.824Z,4.33
2017-11-17T06:59:30.795Z,4.60
2017-11-17T07:01:59.276Z,4.90
2017-11-17T07:04:27.509Z,4.80
2017-11-17T07:06:55.789Z,4.93
2017-11-17T07:09:24.095Z,4.40
2017-11-17T07:11:52.329Z,4.70
2017-11-17T07:14:20.617Z,4.37
2017-11-17T07:16:48.864Z,4.53
2017-11-17T07:19:17.530Z,4.60
2017-11-17T07:21:45.781Z,4.67
2017-11-17T07:24:14.033Z,4.47
2017-11-17T07:26:42.302Z,4.93
2017-11-17T07:29:10.539Z,4.63
2017-11-17T07:31:39.171Z,4.07
2017-11-17T07:34:07.467Z,4.07
2017-11-17T07:36:35.705Z,4.33
2017-11-17T07:39:03.937Z,4.23
2017-11-17T07:41:32.295Z,4.30
2017-11-17T07:44:00.514Z,4.10
2017-11-17T07:46:29.184Z,4.03
2017-11-17T07:48:57.426Z,3.90
2017-11-17T07:51:25.657Z,4.30
2017-11-17T07:53:53.934Z,4.20
2017-11-17T07:56:22.201Z,4.27
2017-11-17T07:58:50.870Z,4.03
2017-11-17T08:01:19.088Z,3.63
2017-11-17T08:03:47.350Z,3.73
2017-11-17T08:06:15.640Z,3.83
2017-11-17T08:08:43.883Z,3.60
2017-11-17T08:11:12.505Z,3.53
2017-11-17T08:13:40.747Z,3.47
2017-11-17T08:16:09.384Z,3.90
2017-11-17T08:18:41.035Z,3.80
2017-11-17T08:21:09.268Z,3.30
2017-11-17T08:23:37.950Z,3.30
2017-11-17T08:26:06.578Z,3.23
2017-11-17T08:28:34.811Z,3.37
2017-11-17T08:31:03.461Z,3.80
2017-11-17T08:33:31.715Z,3.67
2017-11-17T08:36:00.015Z,3.20
2017-11-17T08:38:28.293Z,3.10
2017-11-17T08:40:56.949Z,3.10
2017-11-17T08:43:25.412Z,3.60
2017-11-17T08:45:53.821Z,3.00
2017-11-17T08:48:22.074Z,2.77
2017-11-17T08:50:50.410Z,2.93
2017-11-17T08:53:19.065Z,2.80
2017-11-17T08:55:47.309Z,2.93
2017-11-17T08:58:15.566Z,3.03
2017-11-17T09:00:43.821Z,2.73
2017-11-17T09:03:12.444Z,3.00
2017-11-17T09:05:40.726Z,2.70
2017-11-17T09:08:08.962Z,2.90
2017-11-17T09:10:38.502Z,2.80
2017-11-17T09:13:06.777Z,2.87
2017-11-17T09:15:35.009Z,2.87
2017-11-17T09:18:03.638Z,2.93
2017-11-17T09:20:31.948Z,2.83
2017-11-17T09:23:00.173Z,2.60
2017-11-17T09:25:28.804Z,2.60
2017-11-17T09:27:57.049Z,2.47
2017-11-17T09:30:25.294Z,2.30
2017-11-17T09:32:54.254Z,2.50
2017-11-17T09:35:22.482Z,2.50
2017-11-17T09:37:50.726Z,2.10
2017-11-17T09:40:19.365Z,2.30
2017-11-17T09:42:47.606Z,2.23
2017-11-17T09:45:15.849Z,2.00
2017-11-17T09:47:44.135Z,2.00
2017-11-17T09:50:12.765Z,2.30
2017-11-17T09:52:41.009Z,2.10
2017-11-17T09:55:09.644Z,2.10
2017-11-17T09:57:37.891Z,2.30
2017-11-17T10:00:06.153Z,2.00
2017-11-17T10:02:34.385Z,1.93
2017-11-17T10:05:02.628Z,2.03
2017-11-17T10:07:30.887Z,2.17
2017-11-17T10:09:59.113Z,1.93
2017-11-17T10:12:27.374Z,1.80
2017-11-17T10:14:55.867Z,2.33
2017-11-17T10:17:24.887Z,1.90
2017-11-17T10:19:54.347Z,2.00
2017-11-17T10:22:22.578Z,2.00
2017-11-17T10:24:51.502Z,1.70
2017-11-17T10:27:19.746Z,1.90
2017-11-17T10:29:49.104Z,1.80
2017-11-17T10:32:18.285Z,1.90
2017-11-17T10:34:46.551Z,1.93
2017-11-17T10:37:16.062Z,1.60
2017-11-17T10:39:44.298Z,1.73
2017-11-17T10:42:12.572Z,1.80
2017-11-17T10:44:41.195Z,1.77
2017-11-17T10:47:09.421Z,1.70
2017-11-17T10:49:38.070Z,1.53
2017-11-17T10:52:06.307Z,1.90
2017-11-17T10:54:34.572Z,1.80
2017-11-17T10:57:02.836Z,1.90
2017-11-17T10:59:33.808Z,1.67
2017-11-17T11:02:02.069Z,1.60
2017-11-17T11:04:30.307Z,1.60
2017-11-17T11:06:58.534Z,1.80
2017-11-17T11:09:27.050Z,1.70
2017-11-17T11:11:55.316Z,1.80
2017-11-17T11:14:23.553Z,1.57
2017-11-17T11:16:52.091Z,1.50
2017-11-17T11:19:20.311Z,1.40
2017-11-17T11:21:48.585Z,1.80
2017-11-17T11:24:17.089Z,1.60
2017-11-17T11:26:45.348Z,1.70
2017-11-17T11:29:13.582Z,1.63
2017-11-17T11:31:41.866Z,1.87
2017-11-17T11:34:10.099Z,1.73
2017-11-17T11:36:38.600Z,1.67
2017-11-17T11:39:06.834Z,1.60
2017-11-17T11:41:35.141Z,1.60
2017-11-17T11:44:03.635Z,1.60
2017-11-17T11:46:31.865Z,1.70
2017-11-17T11:49:00.656Z,1.63
2017-11-17T11:51:38.257Z,1.40
2017-11-17T11:54:07.160Z,1.60
2017-11-17T11:56:35.385Z,1.43
2017-11-17T11:59:05.749Z,1.40
2017-11-17T12:01:34.457Z,1.53
2017-11-17T12:04:02.841Z,1.80
2017-11-17T12:06:31.425Z,1.43
2017-11-17T12:08:59.669Z,1.50
2017-11-17T12:11:27.912Z,1.50
2017-11-17T12:13:57.230Z,1.50
2017-11-17T12:16:25.507Z,1.80
2017-11-17T12:18:53.769Z,1.30
2017-11-17T12:21:21.988Z,1.70
2017-11-17T12:23:50.233Z,1.50
2017-11-17T12:26:18.469Z,1.47
2017-11-17T12:28:46.737Z,1.33
2017-11-17T12:31:14.978Z,1.80
2017-11-17T12:33:43.223Z,1.53
2017-11-17T12:36:11.766Z,1.80
2017-11-17T12:38:39.996Z,1.33
2017-11-17T12:41:08.232Z,1.40
2017-11-17T12:43:36.877Z,1.97
2017-11-17T12:46:05.109Z,1.83
2017-11-17T12:48:33.357Z,1.57
2017-11-17T12:51:01.607Z,1.60
2017-11-17T12:53:29.832Z,1.53
2017-11-17T12:55:58.097Z,1.30
2017-11-17T12:58:27.399Z,1.33
2017-11-17T13:00:56.022Z,1.70
2017-11-17T13:03:24.294Z,1.60
2017-11-17T13:05:52.530Z,1.50
2017-11-17T13:08:21.165Z,1.50
2017-11-17T13:10:49.419Z,1.57
2017-11-17T13:13:17.672Z,1.60
2017-11-17T13:15:45.914Z,1.53
2017-11-17T13:18:14.155Z,1.50
2017-11-17T13:20:42.396Z,1.40
2017-11-17T13:23:11.663Z,1.60
2017-11-17T13:25:39.893Z,1.77
2017-11-17T13:28:08.141Z,1.50
2017-11-17T13:30:36.384Z,1.73
2017-11-17T13:33:05.393Z,1.60
2017-11-17T13:35:33.637Z,1.53
2017-11-17T13:38:01.885Z,1.23
2017-11-17T13:40:30.137Z,1.50
2017-11-17T13:42:58.770Z,1.37
2017-11-17T13:45:27.277Z,1.63
2017-11-17T13:47:55.532Z,1.53
2017-11-17T13:50:24.221Z,1.60
2017-11-17T13:52:52.458Z,1.80
2017-11-17T13:55:20.755Z,1.80
2017-11-17T13:57:48.977Z,1.60
2017-11-17T14:00:17.211Z,1.40
2017-11-17T14:02:45.481Z,1.47
2017-11-17T14:05:13.730Z,1.47
2017-11-17T14:07:42.352Z,1.40
2017-11-17T14:10:10.857Z,1.80
2017-11-17T14:12:39.935Z,1.40
2017-11-17T14:15:08.208Z,1.50
2017-11-17T14:17:36.450Z,1.40
2017-11-17T14:20:04.683Z,1.60
2017-11-17T14:22:32.938Z,1.53
2017-11-17T14:25:01.170Z,1.50
2017-11-17T14:27:29.803Z,1.37
2017-11-17T14:29:58.055Z,1.60
2017-11-17T14:32:26.309Z,1.87
2017-11-17T14:34:55.152Z,1.10
2017-11-17T14:37:23.638Z,1.50
2017-11-17T14:39:51.915Z,1.50
2017-11-17T14:42:20.782Z,1.60
2017-11-17T14:44:49.018Z,1.30
2017-11-17T14:47:17.658Z,1.30
2017-11-17T14:49:45.992Z,1.27
2017-11-17T14:52:14.370Z,1.40
2017-11-17T14:54:42.719Z,1.20
2017-11-17T14:57:11.878Z,1.40
2017-11-17T14:59:40.142Z,1.80
2017-11-17T15:02:08.379Z,1.60
2017-11-17T15:04:37.150Z,1.63
2017-11-17T15:07:05.789Z,1.67
2017-11-17T15:09:34.073Z,1.70
2017-11-17T15:12:02.315Z,1.50
2017-11-17T15:14:30.576Z,1.40
2017-11-17T15:16:59.230Z,1.77
2017-11-17T15:19:27.494Z,1.70
2017-11-17T15:21:55.724Z,1.40
2017-11-17T15:24:24.016Z,1.63
2017-11-17T15:26:52.306Z,1.60
2017-11-17T15:29:20.564Z,1.40
2017-11-17T15:31:48.825Z,1.47
2017-11-17T15:34:17.473Z,1.83
2017-11-17T15:36:45.710Z,1.40
2017-11-17T15:39:13.945Z,1.33
2017-11-17T15:41:42.712Z,1.53
2017-11-17T15:44:10.954Z,1.30
2017-11-17T15:46:39.205Z,1.43
2017-11-17T15:49:07.455Z,1.83
2017-11-17T15:51:36.110Z,1.60
2017-11-17T15:54:04.485Z,1.70
2017-11-17T15:56:32.746Z,1.90
2017-11-17T15:59:00.980Z,1.40
2017-11-17T16:01:29.625Z,1.50
2017-11-17T16:03:57.886Z,1.70
2017-11-17T16:06:26.174Z,1.60
2017-11-17T16:08:54.441Z,2.30
2017-11-17T16:11:23.097Z,1.60
2017-11-17T16:13:51.334Z,1.33
2017-11-17T16:16:19.580Z,1.63
2017-11-17T16:18:47.834Z,1.60
2017-11-17T16:21:16.137Z,1.63
2017-11-17T16:23:44.388Z,1.60
2017-11-17T16:26:12.642Z,1.63
2017-11-17T16:28:41.296Z,1.60
2017-11-17T16:31:09.550Z,1.77
2017-11-17T16:33:37.791Z,2.13
2017-11-17T16:36:06.046Z,1.83
2017-11-17T16:38:34.713Z,2.10
2017-11-17T16:41:02.984Z,1.60
2017-11-17T16:43:31.217Z,1.70
2017-11-17T16:45:59.518Z,1.87
2017-11-17T16:48:27.759Z,1.53
2017-11-17T16:50:56.023Z,1.77
2017-11-17T16:53:24.289Z,2.60
2017-11-17T16:55:52.552Z,1.50
2017-11-17T16:58:20.813Z,2.07
2017-11-17T17:00:49.449Z,1.73
2017-11-17T17:03:17.965Z,2.20
2017-11-17T17:05:46.217Z,1.90
2017-11-17T17:08:14.492Z,1.67
2017-11-17T17:10:43.078Z,1.77
2017-11-17T17:13:11.325Z,2.30
2017-11-17T17:15:39.962Z,1.70
2017-11-17T17:18:08.247Z,2.20
2017-11-17T17:20:36.483Z,1.97
2017-11-17T17:23:04.725Z,1.70
2017-11-17T17:25:33.055Z,2.10
2017-11-17T17:28:01.802Z,1.80
2017-11-17T17:30:31.057Z,2.47
2017-11-17T17:32:59.420Z,2.00
2017-11-17T17:35:27.637Z,2.43
2017-11-17T17:37:56.291Z,2.23
2017-11-17T17:40:24.540Z,2.20
2017-11-17T17:42:52.785Z,2.47
2017-11-17T17:45:21.055Z,2.30
2017-11-17T17:47:49.678Z,2.10
2017-11-17T17:50:17.916Z,1.83
2017-11-17T17:52:46.207Z,2.03
2017-11-17T17:55:14.488Z,2.07
2017-11-17T17:57:43.011Z,2.27
2017-11-17T18:00:12.095Z,2.27
2017-11-17T18:02:40.584Z,2.17
2017-11-17T18:05:08.863Z,1.93
2017-11-17T18:07:37.131Z,2.33
2017-11-17T18:10:05.382Z,2.67
2017-11-17T18:12:33.641Z,2.87
2017-11-17T18:15:01.885Z,2.10
2017-11-17T18:17:30.546Z,2.50
2017-11-17T18:19:58.810Z,2.60
2017-11-17T18:22:27.137Z,2.47
2017-11-17T18:24:55.331Z,2.50
2017-11-17T18:27:23.575Z,2.00
2017-11-17T18:29:52.269Z,2.70
2017-11-17T18:32:20.485Z,2.27
2017-11-17T18:34:48.719Z,2.20
2017-11-17T18:37:17.397Z,2.60
2017-11-17T18:39:46.265Z,2.60
2017-11-17T18:42:14.587Z,2.57
2017-11-17T18:44:42.837Z,2.27
2017-11-17T18:47:11.536Z,2.60
2017-11-17T18:49:39.792Z,2.60
2017-11-17T18:52:08.079Z,2.60
2017-11-17T18:54:36.310Z,2.90
2017-11-17T18:57:04.560Z,2.57
2017-11-17T18:59:32.851Z,2.50
2017-11-17T19:02:01.115Z,2.40
2017-11-17T19:04:29.836Z,2.43
2017-11-17T19:06:58.078Z,3.33
2017-11-17T19:09:26.335Z,3.07
2017-11-17T19:11:54.986Z,2.20
2017-11-17T19:14:23.303Z,2.50
2017-11-17T19:16:52.288Z,2.80
2017-11-17T19:19:20.593Z,2.57
2017-11-17T19:21:49.205Z,2.70
2017-11-17T19:24:17.453Z,2.97
2017-11-17T19:26:45.687Z,2.90
2017-11-17T19:29:14.372Z,2.90
2017-11-17T19:31:42.818Z,2.70
2017-11-17T19:34:11.106Z,2.70
2017-11-17T19:36:39.401Z,2.57
2017-11-17T19:39:08.050Z,2.67
2017-11-17T19:41:36.315Z,2.87
2017-11-17T19:44:04.554Z,2.93
2017-11-17T19:46:32.802Z,2.33
2017-11-17T19:49:01.366Z,3.50
2017-11-17T19:51:29.605Z,3.07
2017-11-17T19:53:57.849Z,2.87
2017-11-17T19:56:26.510Z,2.63
2017-11-17T19:58:54.753Z,2.57
2017-11-17T20:01:22.996Z,3.27
2017-11-17T20:03:51.733Z,3.07
2017-11-17T20:06:19.987Z,3.10
2017-11-17T20:08:48.226Z,3.00
2017-11-17T20:11:16.869Z,2.90
2017-11-17T20:13:45.101Z,3.13
2017-11-17T20:16:13.377Z,3.10
2017-11-17T20:18:42.567Z,3.00
2017-11-17T20:21:11.712Z,2.90
2017-11-17T20:23:39.985Z,2.87
2017-11-17T20:26:08.230Z,2.90
2017-11-17T20:28:36.457Z,3.27
2017-11-17T20:33:39.631Z,3.20
2017-11-17T20:36:07.895Z,3.07
2017-11-17T20:38:36.134Z,3.00
2017-11-17T20:41:04.791Z,2.93
2017-11-17T20:43:33.030Z,3.37
2017-11-17T20:46:01.265Z,3.10
2017-11-17T20:48:30.481Z,3.17
2017-11-17T20:50:58.718Z,3.30
2017-11-17T20:53:26.957Z,3.30
2017-11-17T20:55:55.196Z,3.10
2017-11-17T20:58:24.762Z,2.90
2017-11-17T21:00:52.982Z,3.40
2017-11-17T21:03:21.620Z,2.70
2017-11-17T21:05:50.110Z,3.40
2017-11-17T21:08:19.205Z,3.60
2017-11-17T21:10:47.450Z,3.10
2017-11-17T21:13:15.688Z,3.20
2017-11-17T21:15:44.331Z,3.10
2017-11-17T21:18:12.574Z,3.20
2017-11-17T21:20:41.101Z,2.87
2017-11-17T21:23:09.343Z,3.13
2017-11-17T21:25:37.570Z,2.90
2017-11-17T21:28:06.216Z,3.27
2017-11-17T21:30:34.479Z,3.23
2017-11-17T21:33:02.990Z,2.80
2017-11-17T21:35:31.235Z,3.10
2017-11-17T21:37:59.484Z,3.20
2017-11-17T21:40:28.138Z,3.13
2017-11-17T21:42:56.374Z,3.07
2017-11-17T21:45:24.613Z,3.37
2017-11-17T21:47:53.265Z,3.07
2017-11-17T21:50:21.494Z,2.83
2017-11-17T21:52:49.725Z,3.23
2017-11-17T21:55:18.009Z,2.97
2017-11-17T21:57:46.645Z,3.00
2017-11-17T22:00:14.902Z,3.00
2017-11-17T22:02:43.154Z,3.00
2017-11-17T22:05:11.785Z,3.00
2017-11-17T22:07:40.042Z,3.37
2017-11-17T22:10:08.306Z,3.10
2017-11-17T22:12:36.547Z,3.80
2017-11-17T22:15:04.781Z,3.00
2017-11-17T22:17:33.024Z,3.40
2017-11-17T22:20:01.663Z,3.33
2017-11-17T22:22:29.898Z,3.20
2017-11-17T22:24:58.213Z,2.90
2017-11-17T22:27:26.435Z,3.70
2017-11-17T22:29:54.744Z,3.13
2017-11-17T22:32:22.978Z,3.23
2017-11-17T22:34:51.604Z,3.20
2017-11-17T22:37:19.877Z,3.10
2017-11-17T22:39:48.114Z,3.00
2017-11-17T22:42:16.741Z,3.23
2017-11-17T22:44:44.998Z,3.70
2017-11-17T22:47:13.239Z,3.00
2017-11-17T22:49:41.875Z,3.00
2017-11-17T22:52:10.113Z,3.37
2017-11-17T22:54:38.753Z,2.87
2017-11-17T22:57:07.275Z,3.60
2017-11-17T22:59:35.471Z,2.97
2017-11-17T23:02:04.504Z,3.07
2017-11-17T23:04:33.875Z,3.40
2017-11-17T23:07:02.118Z,3.30
2017-11-17T23:09:30.742Z,3.20
2017-11-17T23:11:59.025Z,3.90
2017-11-17T23:14:27.274Z,3.57
2017-11-17T23:16:55.545Z,3.30
2017-11-17T23:19:23.800Z,3.17
2017-11-17T23:21:52.042Z,3.50
2017-11-17T23:24:20.709Z,3.37
2017-11-17T23:26:48.966Z,3.17
2017-11-17T23:29:17.214Z,3.17
2017-11-17T23:31:45.867Z,3.10
2017-11-17T23:34:14.365Z,3.40
2017-11-17T23:36:42.585Z,3.80
2017-11-17T23:39:10.817Z,3.70
2017-11-17T23:41:39.068Z,3.80
2017-11-17T23:44:07.302Z,3.53
2017-11-17T23:46:35.557Z,3.00
2017-11-17T23:49:04.210Z,3.70
2017-11-17T23:51:32.426Z,4.17
2017-11-17T23:54:01.086Z,3.60
2017-11-17T23:56:29.309Z,3.80
2017-11-17T23:58:57.556Z,3.50
